This is the latest recevied weather packets stored in our database for station/object XE1E-15. If no packets are shown the sender has not sent any weather packets the latest 1 day(s).
| Time | Temp. | Humidity | Pressure | Rain* | Wind** | Luminosity | Snow |
|---|---|---|---|---|---|---|---|
| 1777874918 | 23.89° C | 66% | 1025.7 hPa | - | - | - | - |
| 1777873958 | 23.89° C | 65% | 1025.9 hPa | - | - | - | - |
| 1777872998 | 23.89° C | 65% | 1026 hPa | - | - | - | - |
| 1777872038 | 23.89° C | 65% | 1026.3 hPa | - | - | - | - |
| 1777871078 | 23.33° C | 66% | 1026.2 hPa | - | - | - | - |
| 1777870118 | 24.44° C | 64% | 1026.2 hPa | - | - | - | - |
| 1777869189 | 23.89° C | 66% | 1026.1 hPa | - | - | - | - |
| 1777869157 | 23.89° C | 66% | 1026.1 hPa | - | - | - | - |
| 1777868229 | 23.89° C | 67% | 1025.9 hPa | - | - | - | - |
| 1777868197 | 23.89° C | 67% | 1025.9 hPa | - | - | - | - |
| 1777867293 | 24.44° C | 64% | 1026 hPa | - | - | - | - |
| 1777867237 | 24.44° C | 64% | 1026 hPa | - | - | - | - |
| 1777866277 | 23.89° C | 67% | 1026 hPa | - | - | - | - |
| 1777865352 | 24.44° C | 65% | 1025.9 hPa | - | - | - | - |
| 1777865317 | 24.44° C | 65% | 1025.9 hPa | - | - | - | - |
| 1777864356 | 25° C | 62% | 1026 hPa | - | - | - | - |
| 1777862918 | 24.44° C | 66% | 1025.8 hPa | - | - | - | - |
| 1777861958 | 23.89° C | 70% | 1025.9 hPa | - | - | - | - |
| 1777860998 | 23.89° C | 71% | 1025.9 hPa | - | - | - | - |
| 1777860038 | 23.33° C | 75% | 1025.7 hPa | - | - | - | - |
| 1777859078 | 23.33° C | 73% | 1025.5 hPa | - | - | - | - |
| 1777858117 | 21.11° C | 82% | 1025 hPa | - | - | - | - |
| 1777857157 | 21.11° C | 88% | 1024.6 hPa | - | - | - | - |
| 1777856197 | 22.22° C | 76% | 1024.2 hPa | - | - | - | - |
| 1777855237 | 23.89° C | 57% | 1023.6 hPa | - | - | - | - |
* Rain since midnight (hover to see other rain measurements)
** Current wind speed in m/s (hover to see current wind gust speed)